Time,TemperatureF,DewpointF,PressureIn,WindDirection,WindDirectionDegrees,WindSpeedMPH,WindSpeedGustMPH,Humidity,HourlyPrecipIn,Conditions,Clouds,dailyrainin,SoftwareType,DateUTC
2013-02-19 00:02:00,57.0,49.0,30.10,North,360,0.0,0.0,75,0.00,,,0.00,,2013-02-19 05:02:00,
2013-02-19 00:12:00,57.0,49.0,30.10,North,360,0.0,0.0,75,0.00,,,0.00,,2013-02-19 05:12:00,
2013-02-19 00:22:00,57.0,49.0,30.11,South,186,0.0,1.0,74,0.00,,,0.00,,2013-02-19 05:22:00,
2013-02-19 00:32:00,58.0,49.0,30.10,North,360,0.0,1.0,73,0.00,,,0.00,,2013-02-19 05:32:00,
2013-02-19 00:43:00,58.0,49.0,30.10,North,360,0.0,1.0,73,0.00,,,0.00,,2013-02-19 05:43:00,
2013-02-19 00:52:00,58.0,49.0,30.10,North,360,0.0,0.0,73,0.00,,,0.00,,2013-02-19 05:52:00,
2013-02-19 01:02:00,57.0,49.0,30.11,North,360,0.0,0.0,74,0.00,,,0.00,,2013-02-19 06:02:00,
2013-02-19 01:12:00,57.0,49.0,30.11,North,360,0.0,0.0,74,0.00,,,0.00,,2013-02-19 06:12:00,
2013-02-19 01:22:00,57.0,49.0,30.11,North,360,0.0,0.0,75,0.00,,,0.00,,2013-02-19 06:22:00,
2013-02-19 01:32:00,57.0,50.0,30.10,North,360,0.0,0.0,76,0.00,,,0.00,,2013-02-19 06:32:00,
2013-02-19 01:42:00,57.0,50.0,30.10,North,360,0.0,0.0,76,0.00,,,0.00,,2013-02-19 06:42:00,
2013-02-19 01:52:00,57.0,50.0,30.10,North,360,0.0,0.0,76,0.00,,,0.00,,2013-02-19 06:52:00,
2013-02-19 02:01:00,57.0,50.0,30.10,North,360,0.0,0.0,76,0.00,,,0.00,,2013-02-19 07:01:00,
2013-02-19 02:11:00,57.0,50.0,30.10,North,360,0.0,0.0,76,0.00,,,0.00,,2013-02-19 07:11:00,
2013-02-19 02:22:00,57.0,49.0,30.10,North,360,0.0,0.0,74,0.00,,,0.00,,2013-02-19 07:22:00,
2013-02-19 02:32:00,57.0,48.0,30.10,North,360,0.0,0.0,73,0.00,,,0.00,,2013-02-19 07:32:00,
2013-02-19 02:42:00,57.0,48.0,30.10,North,360,0.0,0.0,73,0.00,,,0.00,,2013-02-19 07:42:00,
2013-02-19 02:52:00,57.0,49.0,30.09,North,360,0.0,0.0,74,0.00,,,0.00,,2013-02-19 07:52:00,
2013-02-19 03:02:00,57.0,50.0,30.08,North,360,0.0,0.0,76,0.00,,,0.00,,2013-02-19 08:02:00,
2013-02-19 03:11:00,57.0,50.0,30.08,North,360,0.0,0.0,76,0.00,,,0.00,,2013-02-19 08:11:00,
2013-02-19 03:21:00,56.0,49.0,30.08,North,360,0.0,0.0,77,0.00,,,0.00,,2013-02-19 08:21:00,
2013-02-19 03:32:00,56.0,49.0,30.07,North,360,0.0,0.0,78,0.00,,,0.00,,2013-02-19 08:32:00,
2013-02-19 03:42:00,56.0,49.0,30.07,North,360,0.0,0.0,78,0.00,,,0.00,,2013-02-19 08:42:00,
2013-02-19 03:52:00,55.0,48.0,30.06,North,360,0.0,0.0,78,0.00,,,0.00,,2013-02-19 08:52:00,
2013-02-19 04:02:00,54.0,48.0,30.05,North,360,0.0,0.0,79,0.00,,,0.00,,2013-02-19 09:02:00,
2013-02-19 04:11:00,54.0,48.0,30.05,North,360,0.0,0.0,79,0.00,,,0.00,,2013-02-19 09:11:00,
2013-02-19 04:22:00,54.0,48.0,30.05,North,360,0.0,0.0,81,0.00,,,0.00,,2013-02-19 09:22:00,
2013-02-19 04:32:00,54.0,49.0,30.06,North,360,0.0,0.0,82,0.00,,,0.00,,2013-02-19 09:32:00,
2013-02-19 04:42:00,54.0,49.0,30.06,North,360,0.0,0.0,82,0.00,,,0.00,,2013-02-19 09:42:00,
2013-02-19 04:53:00,54.0,49.0,30.05,North,360,0.0,0.0,82,0.00,,,0.00,,2013-02-19 09:53:00,
2013-02-19 05:02:00,54.0,49.0,30.06,North,360,0.0,0.0,83,0.00,,,0.00,,2013-02-19 10:02:00,
2013-02-19 05:11:00,54.0,49.0,30.06,North,360,0.0,0.0,83,0.00,,,0.00,,2013-02-19 10:11:00,
2013-02-19 05:22:00,54.0,49.0,30.05,North,360,0.0,0.0,84,0.00,,,0.00,,2013-02-19 10:22:00,
2013-02-19 05:32:00,54.0,49.0,30.05,North,360,0.0,0.0,84,0.00,,,0.00,,2013-02-19 10:32:00,
2013-02-19 05:42:00,54.0,49.0,30.05,North,360,0.0,0.0,84,0.00,,,0.00,,2013-02-19 10:42:00,
2013-02-19 05:52:00,54.0,50.0,30.05,North,360,0.0,0.0,85,0.00,,,0.00,,2013-02-19 10:52:00,
2013-02-19 06:01:00,55.0,50.0,30.04,North,360,0.0,0.0,84,0.00,,,0.00,,2013-02-19 11:01:00,
2013-02-19 06:11:00,54.0,49.0,30.05,North,360,0.0,0.0,84,0.00,,,0.00,,2013-02-19 11:11:00,
2013-02-19 06:22:00,54.0,49.0,30.05,North,360,0.0,0.0,84,0.00,,,0.00,,2013-02-19 11:22:00,
2013-02-19 06:32:00,54.0,50.0,30.05,North,360,0.0,0.0,85,0.00,,,0.00,,2013-02-19 11:32:00,
2013-02-19 06:42:00,54.0,50.0,30.05,North,360,0.0,0.0,85,0.00,,,0.00,,2013-02-19 11:42:00,
2013-02-19 06:52:00,54.0,50.0,30.04,North,360,0.0,0.0,86,0.00,,,0.00,,2013-02-19 11:52:00,
2013-02-19 07:02:00,54.0,51.0,30.05,North,360,0.0,0.0,88,0.00,,,0.00,,2013-02-19 12:02:00,
2013-02-19 07:12:00,54.0,51.0,30.05,North,360,0.0,0.0,88,0.00,,,0.00,,2013-02-19 12:12:00,
2013-02-19 07:22:00,54.0,51.0,30.05,North,360,0.0,0.0,88,0.00,,,0.00,,2013-02-19 12:22:00,
2013-02-19 07:32:00,54.0,51.0,30.05,North,360,0.0,0.0,89,0.00,,,0.00,,2013-02-19 12:32:00,
2013-02-19 07:42:00,54.0,51.0,30.05,North,360,0.0,0.0,89,0.00,,,0.00,,2013-02-19 12:42:00,
2013-02-19 07:52:00,53.0,50.0,30.04,North,360,0.0,0.0,89,0.00,,,0.00,,2013-02-19 12:52:00,
2013-02-19 08:02:00,55.0,52.0,30.05,North,360,0.0,0.0,91,0.00,,,0.00,,2013-02-19 13:02:00,
2013-02-19 08:11:00,55.0,52.0,30.05,North,360,0.0,0.0,91,0.00,,,0.00,,2013-02-19 13:11:00,
2013-02-19 08:22:00,56.0,53.0,30.05,North,360,0.0,0.0,91,0.00,,,0.00,,2013-02-19 13:22:00,
2013-02-19 08:32:00,58.0,54.0,30.05,South,185,0.0,0.0,88,0.00,,,0.00,,2013-02-19 13:32:00,
2013-02-19 08:42:00,58.0,54.0,30.05,South,185,0.0,0.0,88,0.00,,,0.00,,2013-02-19 13:42:00,
2013-02-19 08:52:00,60.0,55.0,30.05,SSE,157,1.0,1.0,85,0.00,,,0.00,,2013-02-19 13:52:00,
2013-02-19 09:01:00,60.0,55.0,30.06,SSE,159,1.0,1.0,84,0.00,,,0.00,,2013-02-19 14:01:00,
2013-02-19 09:12:00,60.0,55.0,30.06,SSE,159,1.0,1.0,84,0.00,,,0.00,,2013-02-19 14:12:00,
2013-02-19 09:22:00,62.0,56.0,30.06,SSE,166,1.0,3.0,82,0.00,,,0.00,,2013-02-19 14:22:00,
2013-02-19 09:33:00,62.0,56.0,30.06,South,183,4.0,12.0,81,0.00,,,0.00,,2013-02-19 14:33:00,
2013-02-19 09:42:00,62.0,56.0,30.06,South,183,4.0,12.0,81,0.00,,,0.00,,2013-02-19 14:42:00,
2013-02-19 09:52:00,63.0,56.0,30.06,North,360,0.0,1.0,79,0.00,,,0.00,,2013-02-19 14:52:00,
2013-02-19 10:02:00,64.0,57.0,30.06,North,360,0.0,0.0,77,0.00,,,0.00,,2013-02-19 15:02:00,
2013-02-19 10:11:00,64.0,57.0,30.06,North,360,0.0,0.0,77,0.00,,,0.00,,2013-02-19 15:11:00,
2013-02-19 10:21:00,65.0,57.0,30.07,North,360,0.0,0.0,75,0.00,,,0.00,,2013-02-19 15:21:00,
2013-02-19 10:32:00,67.0,58.0,30.07,South,169,2.0,2.0,72,0.00,,,0.00,,2013-02-19 15:32:00,
2013-02-19 10:42:00,67.0,58.0,30.07,South,169,2.0,2.0,72,0.00,,,0.00,,2013-02-19 15:42:00,
2013-02-19 10:52:00,68.0,57.0,30.07,South,171,4.0,4.0,69,0.00,,,0.00,,2013-02-19 15:52:00,
2013-02-19 11:02:00,69.0,58.0,30.07,South,174,1.0,5.0,67,0.00,,,0.00,,2013-02-19 16:02:00,
2013-02-19 11:11:00,69.0,58.0,30.07,South,174,1.0,5.0,67,0.00,,,0.00,,2013-02-19 16:11:00,
2013-02-19 11:22:00,69.0,57.0,30.06,North,360,0.0,5.0,66,0.00,,,0.00,,2013-02-19 16:22:00,
2013-02-19 11:32:00,70.0,58.0,30.06,SSW,193,1.0,3.0,65,0.00,,,0.00,,2013-02-19 16:32:00,
2013-02-19 11:42:00,70.0,58.0,30.06,SSW,193,1.0,3.0,65,0.00,,,0.00,,2013-02-19 16:42:00,
2013-02-19 11:52:00,71.0,57.0,30.06,South,175,4.0,10.0,61,0.00,,,0.00,,2013-02-19 16:52:00,
2013-02-19 12:01:00,72.0,56.0,30.06,South,169,7.0,7.0,58,0.00,,,0.00,,2013-02-19 17:01:00,
2013-02-19 12:11:00,72.0,56.0,30.06,South,169,7.0,7.0,58,0.00,,,0.00,,2013-02-19 17:11:00,
2013-02-19 12:21:00,73.0,57.0,30.06,South,171,8.0,8.0,57,0.00,,,0.00,,2013-02-19 17:21:00,
2013-02-19 12:32:00,73.0,56.0,30.05,South,169,6.0,10.0,56,0.00,,,0.00,,2013-02-19 17:32:00,
2013-02-19 12:42:00,73.0,55.0,30.05,South,174,7.0,7.0,54,0.00,,,0.00,,2013-02-19 17:42:00,
2013-02-19 12:52:00,73.0,55.0,30.05,South,174,7.0,7.0,54,0.00,,,0.00,,2013-02-19 17:52:00,
2013-02-19 13:01:00,74.0,56.0,30.05,South,180,6.0,6.0,53,0.00,,,0.00,,2013-02-19 18:01:00,
2013-02-19 13:11:00,74.0,56.0,30.05,South,180,6.0,6.0,53,0.00,,,0.00,,2013-02-19 18:11:00,
2013-02-19 13:21:00,74.0,56.0,30.03,South,175,6.0,7.0,53,0.00,,,0.00,,2013-02-19 18:21:00,
2013-02-19 13:32:00,74.0,56.0,30.03,SSE,167,6.0,8.0,53,0.00,,,0.00,,2013-02-19 18:32:00,
2013-02-19 13:42:00,74.0,56.0,30.02,South,191,3.0,3.0,53,0.00,,,0.00,,2013-02-19 18:42:00,
2013-02-19 13:52:00,74.0,56.0,30.02,South,191,3.0,3.0,53,0.00,,,0.00,,2013-02-19 18:52:00,
2013-02-19 14:01:00,74.0,56.0,30.02,SSE,165,8.0,8.0,53,0.00,,,0.00,,2013-02-19 19:01:00,
2013-02-19 14:11:00,74.0,56.0,30.02,SSE,165,8.0,8.0,53,0.00,,,0.00,,2013-02-19 19:11:00,
2013-02-19 14:21:00,74.0,56.0,30.01,South,181,6.0,8.0,54,0.00,,,0.00,,2013-02-19 19:21:00,
2013-02-19 14:32:00,74.0,56.0,30.01,South,173,8.0,8.0,53,0.00,,,0.00,,2013-02-19 19:32:00,
2013-02-19 14:42:00,74.0,56.0,30.01,South,173,8.0,8.0,53,0.00,,,0.00,,2013-02-19 19:42:00,
2013-02-19 14:52:00,74.0,56.0,30.00,SSE,167,9.0,10.0,53,0.00,,,0.00,,2013-02-19 19:52:00,
2013-02-19 15:01:00,74.0,56.0,30.00,South,172,5.0,8.0,54,0.00,,,0.00,,2013-02-19 20:01:00,
2013-02-19 15:12:00,74.0,56.0,30.00,South,172,5.0,8.0,54,0.00,,,0.00,,2013-02-19 20:12:00,
2013-02-19 15:22:00,74.0,57.0,30.00,South,180,5.0,5.0,55,0.00,,,0.00,,2013-02-19 20:22:00,
2013-02-19 15:32:00,74.0,57.0,30.00,South,185,4.0,7.0,56,0.00,,,0.00,,2013-02-19 20:32:00,
2013-02-19 15:42:00,74.0,57.0,30.00,South,185,4.0,7.0,56,0.00,,,0.00,,2013-02-19 20:42:00,
2013-02-19 15:52:00,74.0,57.0,29.99,South,185,6.0,8.0,56,0.00,,,0.00,,2013-02-19 20:52:00,
2013-02-19 16:02:00,73.0,57.0,29.99,South,179,7.0,7.0,57,0.00,,,0.00,,2013-02-19 21:02:00,
2013-02-19 16:11:00,73.0,57.0,29.99,South,179,7.0,7.0,57,0.00,,,0.00,,2013-02-19 21:11:00,
2013-02-19 16:21:00,73.0,57.0,29.98,South,176,6.0,10.0,58,0.00,,,0.00,,2013-02-19 21:21:00,
2013-02-19 16:32:00,72.0,57.0,29.98,South,179,7.0,8.0,59,0.00,,,0.00,,2013-02-19 21:32:00,
2013-02-19 16:42:00,72.0,57.0,29.98,South,179,7.0,8.0,59,0.00,,,0.00,,2013-02-19 21:42:00,
2013-02-19 16:52:00,72.0,57.0,29.98,South,180,8.0,8.0,59,0.00,,,0.00,,2013-02-19 21:52:00,
2013-02-19 17:02:00,72.0,58.0,29.99,South,171,8.0,8.0,61,0.00,,,0.00,,2013-02-19 22:02:00,
2013-02-19 17:11:00,72.0,58.0,29.99,South,171,8.0,8.0,61,0.00,,,0.00,,2013-02-19 22:11:00,
2013-02-19 17:21:00,72.0,58.0,29.99,South,172,5.0,6.0,62,0.00,,,0.00,,2013-02-19 22:21:00,
2013-02-19 17:32:00,71.0,58.0,29.98,South,183,5.0,6.0,64,0.00,,,0.00,,2013-02-19 22:32:00,
2013-02-19 17:42:00,71.0,58.0,29.98,South,183,5.0,6.0,64,0.00,,,0.00,,2013-02-19 22:42:00,
2013-02-19 17:52:00,70.0,58.0,29.98,South,174,7.0,7.0,66,0.00,,,0.00,,2013-02-19 22:52:00,
2013-02-19 18:01:00,70.0,59.0,29.99,South,182,4.0,5.0,68,0.00,,,0.00,,2013-02-19 23:01:00,
2013-02-19 18:11:00,70.0,59.0,29.99,South,182,4.0,5.0,68,0.00,,,0.00,,2013-02-19 23:11:00,
2013-02-19 18:21:00,70.0,59.0,29.99,SSW,199,2.0,5.0,69,0.00,,,0.00,,2013-02-19 23:21:00,
2013-02-19 18:32:00,69.0,59.0,29.99,South,184,4.0,6.0,70,0.00,,,0.00,,2013-02-19 23:32:00,
2013-02-19 18:42:00,69.0,59.0,29.99,South,184,4.0,6.0,70,0.00,,,0.00,,2013-02-19 23:42:00,
2013-02-19 18:52:00,69.0,60.0,29.99,South,174,3.0,3.0,72,0.00,,,0.00,,2013-02-19 23:52:00,
2013-02-19 19:01:00,68.0,60.0,29.99,South,186,3.0,4.0,75,0.00,,,0.00,,2013-02-20 00:01:00,
2013-02-19 19:11:00,68.0,60.0,29.99,South,186,3.0,4.0,75,0.00,,,0.00,,2013-02-20 00:11:00,
2013-02-19 19:21:00,68.0,60.0,29.99,South,181,4.0,4.0,76,0.00,,,0.00,,2013-02-20 00:21:00,
2013-02-19 19:32:00,67.0,60.0,29.99,SSE,168,3.0,3.0,77,0.00,,,0.00,,2013-02-20 00:32:00,
2013-02-19 19:42:00,67.0,60.0,29.99,SSE,168,3.0,3.0,77,0.00,,,0.00,,2013-02-20 00:42:00,
2013-02-19 19:52:00,67.0,60.0,29.99,South,186,1.0,3.0,78,0.00,,,0.00,,2013-02-20 00:52:00,
2013-02-19 20:02:00,67.0,60.0,30.00,South,180,3.0,3.0,79,0.00,,,0.00,,2013-02-20 01:02:00,
2013-02-19 20:11:00,67.0,60.0,30.00,South,180,3.0,3.0,79,0.00,,,0.00,,2013-02-20 01:11:00,
2013-02-19 20:21:00,66.0,60.0,30.00,South,179,3.0,3.0,81,0.00,,,0.00,,2013-02-20 01:21:00,
2013-02-19 20:32:00,66.0,60.0,30.00,South,189,3.0,4.0,81,0.00,,,0.00,,2013-02-20 01:32:00,
2013-02-19 20:42:00,66.0,60.0,30.00,South,189,3.0,4.0,81,0.00,,,0.00,,2013-02-20 01:42:00,
2013-02-19 20:52:00,66.0,60.0,30.00,South,185,4.0,4.0,82,0.00,,,0.00,,2013-02-20 01:52:00,
2013-02-19 21:02:00,66.0,61.0,30.00,South,186,2.0,3.0,83,0.00,,,0.00,,2013-02-20 02:02:00,
2013-02-19 21:11:00,66.0,61.0,30.00,South,186,2.0,3.0,83,0.00,,,0.00,,2013-02-20 02:11:00,
2013-02-19 21:21:00,66.0,61.0,30.00,SSW,197,2.0,2.0,83,0.00,,,0.00,,2013-02-20 02:21:00,
2013-02-19 21:32:00,66.0,61.0,30.00,North,360,0.0,0.0,84,0.00,,,0.00,,2013-02-20 02:32:00,
2013-02-19 21:42:00,66.0,61.0,30.00,North,360,0.0,0.0,84,0.00,,,0.00,,2013-02-20 02:42:00,
2013-02-19 21:52:00,65.0,60.0,30.00,North,360,0.0,0.0,85,0.00,,,0.00,,2013-02-20 02:52:00,
2013-02-19 22:02:00,65.0,60.0,30.00,North,360,0.0,0.0,85,0.00,,,0.00,,2013-02-20 03:02:00,
2013-02-19 22:12:00,65.0,60.0,30.00,North,360,0.0,0.0,85,0.00,,,0.00,,2013-02-20 03:12:00,
2013-02-19 22:22:00,65.0,61.0,30.00,North,360,0.0,0.0,86,0.00,,,0.00,,2013-02-20 03:22:00,
2013-02-19 22:32:00,64.0,60.0,30.00,North,360,0.0,0.0,87,0.00,,,0.00,,2013-02-20 03:32:00,
2013-02-19 22:42:00,64.0,60.0,30.00,North,360,0.0,0.0,87,0.00,,,0.00,,2013-02-20 03:42:00,
2013-02-19 22:52:00,64.0,60.0,30.00,North,360,0.0,0.0,88,0.00,,,0.00,,2013-02-20 03:52:00,
2013-02-19 23:01:00,64.0,61.0,30.00,North,360,0.0,0.0,89,0.00,,,0.00,,2013-02-20 04:01:00,
2013-02-19 23:11:00,64.0,61.0,30.00,North,360,0.0,0.0,89,0.00,,,0.00,,2013-02-20 04:11:00,
2013-02-19 23:21:00,64.0,61.0,29.99,North,360,0.0,0.0,89,0.00,,,0.00,,2013-02-20 04:21:00,
2013-02-19 23:31:00,64.0,61.0,29.99,South,187,1.0,1.0,90,0.00,,,0.00,,2013-02-20 04:31:00,
2013-02-19 23:42:00,64.0,61.0,29.99,South,187,1.0,1.0,90,0.00,,,0.00,,2013-02-20 04:42:00,
2013-02-19 23:52:00,64.0,61.0,29.99,South,187,0.0,0.0,90,0.00,,,0.00,,2013-02-20 04:52:00,